aviador You're here:

EPGD Decoded Metar

GDANSK in POLAND
Report Time2018-07-23 07:30:00
UTC Time2018-07-23 07:46:19
Flight Rules vfr VFR
Wind320° at 06 kt
W.Decomp.*RWY 29: 5.4 kt HW 2.5 kt RCW
W.Rank320° ranks 19
Current wind is below 320° avg. (7.6)
Visibility9999 m
Phenomena:N/A
Clouds:N/A
Expected CloudBase > 5,200 ft AGL from Temp-Dew spread
CeilingNone
Temp24°C (ISA +10)
Dew Point11°C (44% RH)
AAT22.2°C
QNH1014 hPa
Density Alt1,745 ft
Elevation453 ft
Report Wrong Elevation
Raw Report
EPGD 230730Z 32006KT 270V360 CAVOK 24/11 Q1014=

Extra information for EPGD:More info

Metar Taf Metar & Taf Last 4 Metars F.Rules Stats Wind Profile Meteogram Temp Stats Airport Information Weather charts Add Link Nearby VenuesMetar ALERT Operation Metar Decoded Social comments